sensor_id;sensor_type;location;lat;lon;timestamp;P1;durP1;ratioP1;P2;durP2;ratioP2
74922;SDS011;64715;44.760;37.678;2023-02-21T00:00:29;5.45;;;1.35;;
74922;SDS011;64715;44.760;37.678;2023-02-21T00:01:49;6.37;;;1.03;;
74922;SDS011;64715;44.760;37.678;2023-02-21T00:03:09;6.28;;;1.50;;
74922;SDS011;64715;44.760;37.678;2023-02-21T00:04:29;7.05;;;1.35;;
74922;SDS011;64715;44.760;37.678;2023-02-21T00:05:49;7.13;;;1.33;;
74922;SDS011;64715;44.760;37.678;2023-02-21T00:07:08;5.05;;;1.02;;
74922;SDS011;64715;44.760;37.678;2023-02-21T00:08:27;5.53;;;1.20;;
74922;SDS011;64715;44.760;37.678;2023-02-21T00:09:46;8.63;;;1.55;;
74922;SDS011;64715;44.760;37.678;2023-02-21T00:11:06;6.38;;;1.30;;
74922;SDS011;64715;44.760;37.678;2023-02-21T00:12:26;7.03;;;1.50;;
74922;SDS011;64715;44.760;37.678;2023-02-21T00:13:46;6.07;;;1.42;;
74922;SDS011;64715;44.760;37.678;2023-02-21T00:15:05;6.40;;;1.40;;
74922;SDS011;64715;44.760;37.678;2023-02-21T00:16:25;5.70;;;1.30;;
74922;SDS011;64715;44.760;37.678;2023-02-21T00:17:45;5.78;;;1.30;;
74922;SDS011;64715;44.760;37.678;2023-02-21T00:19:04;5.97;;;1.20;;
74922;SDS011;64715;44.760;37.678;2023-02-21T00:20:24;6.60;;;1.35;;
74922;SDS011;64715;44.760;37.678;2023-02-21T00:21:43;6.05;;;1.30;;
74922;SDS011;64715;44.760;37.678;2023-02-21T00:23:03;5.78;;;1.25;;
74922;SDS011;64715;44.760;37.678;2023-02-21T00:24:22;5.45;;;1.50;;
74922;SDS011;64715;44.760;37.678;2023-02-21T00:25:42;8.73;;;1.60;;
74922;SDS011;64715;44.760;37.678;2023-02-21T00:27:03;5.60;;;1.27;;
74922;SDS011;64715;44.760;37.678;2023-02-21T00:28:22;7.03;;;1.20;;
74922;SDS011;64715;44.760;37.678;2023-02-21T00:29:42;5.93;;;1.27;;
74922;SDS011;64715;44.760;37.678;2023-02-21T00:31:01;6.03;;;1.20;;
74922;SDS011;64715;44.760;37.678;2023-02-21T00:32:21;8.30;;;1.40;;
74922;SDS011;64715;44.760;37.678;2023-02-21T00:33:40;6.70;;;1.35;;
74922;SDS011;64715;44.760;37.678;2023-02-21T00:35:00;7.63;;;1.63;;
74922;SDS011;64715;44.760;37.678;2023-02-21T00:36:19;6.20;;;1.33;;
74922;SDS011;64715;44.760;37.678;2023-02-21T00:37:38;6.90;;;1.30;;
74922;SDS011;64715;44.760;37.678;2023-02-21T00:38:57;5.95;;;1.48;;
74922;SDS011;64715;44.760;37.678;2023-02-21T00:40:17;5.55;;;1.20;;
74922;SDS011;64715;44.760;37.678;2023-02-21T00:41:37;6.47;;;1.10;;
74922;SDS011;64715;44.760;37.678;2023-02-21T00:42:56;9.35;;;1.27;;
74922;SDS011;64715;44.760;37.678;2023-02-21T00:44:16;5.78;;;1.17;;
74922;SDS011;64715;44.760;37.678;2023-02-21T00:45:35;6.93;;;0.98;;
74922;SDS011;64715;44.760;37.678;2023-02-21T00:46:54;5.53;;;1.10;;
74922;SDS011;64715;44.760;37.678;2023-02-21T00:48:20;6.28;;;1.10;;
74922;SDS011;64715;44.760;37.678;2023-02-21T00:49:41;6.60;;;1.23;;
74922;SDS011;64715;44.760;37.678;2023-02-21T00:51:01;5.00;;;0.93;;
74922;SDS011;64715;44.760;37.678;2023-02-21T00:52:20;5.88;;;1.10;;
74922;SDS011;64715;44.760;37.678;2023-02-21T00:53:40;7.57;;;1.83;;
74922;SDS011;64715;44.760;37.678;2023-02-21T00:54:59;7.43;;;1.20;;
74922;SDS011;64715;44.760;37.678;2023-02-21T00:56:19;4.95;;;1.20;;
74922;SDS011;64715;44.760;37.678;2023-02-21T00:57:38;6.07;;;1.17;;
74922;SDS011;64715;44.760;37.678;2023-02-21T00:58:58;4.78;;;1.00;;
74922;SDS011;64715;44.760;37.678;2023-02-21T01:00:19;6.00;;;1.10;;
74922;SDS011;64715;44.760;37.678;2023-02-21T01:01:41;6.95;;;1.40;;
74922;SDS011;64715;44.760;37.678;2023-02-21T01:03:00;6.85;;;1.10;;
74922;SDS011;64715;44.760;37.678;2023-02-21T01:04:20;6.93;;;1.20;;
74922;SDS011;64715;44.760;37.678;2023-02-21T01:05:40;4.82;;;1.10;;
74922;SDS011;64715;44.760;37.678;2023-02-21T01:07:02;5.03;;;1.00;;
74922;SDS011;64715;44.760;37.678;2023-02-21T01:08:21;5.23;;;0.90;;
74922;SDS011;64715;44.760;37.678;2023-02-21T01:09:41;6.90;;;1.10;;
74922;SDS011;64715;44.760;37.678;2023-02-21T01:11:01;7.10;;;1.10;;
74922;SDS011;64715;44.760;37.678;2023-02-21T01:12:20;6.45;;;1.02;;
74922;SDS011;64715;44.760;37.678;2023-02-21T01:13:40;6.35;;;1.40;;
74922;SDS011;64715;44.760;37.678;2023-02-21T01:14:59;5.55;;;1.30;;
74922;SDS011;64715;44.760;37.678;2023-02-21T01:16:18;4.93;;;1.17;;
74922;SDS011;64715;44.760;37.678;2023-02-21T01:17:38;5.68;;;0.93;;
74922;SDS011;64715;44.760;37.678;2023-02-21T01:18:57;6.72;;;1.00;;
74922;SDS011;64715;44.760;37.678;2023-02-21T01:20:17;6.47;;;0.95;;
74922;SDS011;64715;44.760;37.678;2023-02-21T01:21:38;5.10;;;1.10;;
74922;SDS011;64715;44.760;37.678;2023-02-21T01:22:57;5.88;;;1.10;;
74922;SDS011;64715;44.760;37.678;2023-02-21T01:24:16;6.20;;;1.30;;
74922;SDS011;64715;44.760;37.678;2023-02-21T01:25:35;4.38;;;0.88;;
74922;SDS011;64715;44.760;37.678;2023-02-21T01:26:55;6.50;;;1.13;;
74922;SDS011;64715;44.760;37.678;2023-02-21T01:28:15;8.45;;;1.15;;
74922;SDS011;64715;44.760;37.678;2023-02-21T01:29:36;6.75;;;1.23;;
74922;SDS011;64715;44.760;37.678;2023-02-21T01:30:56;5.68;;;1.00;;
74922;SDS011;64715;44.760;37.678;2023-02-21T01:32:15;5.35;;;1.10;;
74922;SDS011;64715;44.760;37.678;2023-02-21T01:33:36;5.55;;;1.20;;
74922;SDS011;64715;44.760;37.678;2023-02-21T01:35:00;5.80;;;1.47;;
74922;SDS011;64715;44.760;37.678;2023-02-21T01:36:20;5.93;;;1.08;;
74922;SDS011;64715;44.760;37.678;2023-02-21T01:37:40;5.30;;;1.20;;
74922;SDS011;64715;44.760;37.678;2023-02-21T01:39:00;6.57;;;1.45;;
74922;SDS011;64715;44.760;37.678;2023-02-21T01:40:19;5.63;;;1.15;;
74922;SDS011;64715;44.760;37.678;2023-02-21T01:41:39;5.45;;;1.20;;
74922;SDS011;64715;44.760;37.678;2023-02-21T01:42:58;7.35;;;1.60;;
74922;SDS011;64715;44.760;37.678;2023-02-21T01:44:37;5.65;;;1.30;;
74922;SDS011;64715;44.760;37.678;2023-02-21T01:45:58;6.07;;;1.25;;
74922;SDS011;64715;44.760;37.678;2023-02-21T01:47:18;8.18;;;1.50;;
74922;SDS011;64715;44.760;37.678;2023-02-21T01:48:38;5.10;;;1.10;;
74922;SDS011;64715;44.760;37.678;2023-02-21T01:49:58;10.63;;;1.30;;
74922;SDS011;64715;44.760;37.678;2023-02-21T01:51:25;5.25;;;1.20;;
74922;SDS011;64715;44.760;37.678;2023-02-21T01:52:49;5.90;;;1.20;;
74922;SDS011;64715;44.760;37.678;2023-02-21T01:54:09;5.75;;;1.30;;
74922;SDS011;64715;44.760;37.678;2023-02-21T01:55:29;5.10;;;1.23;;
74922;SDS011;64715;44.760;37.678;2023-02-21T01:56:50;7.78;;;1.48;;
74922;SDS011;64715;44.760;37.678;2023-02-21T01:58:10;7.15;;;1.33;;
74922;SDS011;64715;44.760;37.678;2023-02-21T01:59:30;8.55;;;1.83;;
74922;SDS011;64715;44.760;37.678;2023-02-21T02:00:50;9.35;;;1.58;;
74922;SDS011;64715;44.760;37.678;2023-02-21T02:03:47;6.93;;;1.90;;
74922;SDS011;64715;44.760;37.678;2023-02-21T02:05:07;5.68;;;1.48;;
74922;SDS011;64715;44.760;37.678;2023-02-21T02:06:29;8.95;;;1.20;;
74922;SDS011;64715;44.760;37.678;2023-02-21T02:07:48;6.07;;;1.38;;
74922;SDS011;64715;44.760;37.678;2023-02-21T02:09:14;11.88;;;1.90;;
74922;SDS011;64715;44.760;37.678;2023-02-21T02:10:39;7.35;;;1.65;;
74922;SDS011;64715;44.760;37.678;2023-02-21T02:13:28;6.85;;;1.60;;
74922;SDS011;64715;44.760;37.678;2023-02-21T02:16:28;7.60;;;1.87;;
74922;SDS011;64715;44.760;37.678;2023-02-21T02:27:52;7.43;;;1.40;;
74922;SDS011;64715;44.760;37.678;2023-02-21T02:30:53;8.60;;;1.43;;
74922;SDS011;64715;44.760;37.678;2023-02-21T02:34:46;7.55;;;1.45;;
74922;SDS011;64715;44.760;37.678;2023-02-21T02:35:59;7.72;;;1.40;;
74922;SDS011;64715;44.760;37.678;2023-02-21T02:41:03;9.20;;;1.50;;
74922;SDS011;64715;44.760;37.678;2023-02-21T02:42:15;7.53;;;1.60;;
74922;SDS011;64715;44.760;37.678;2023-02-21T02:43:21;8.77;;;1.57;;
74922;SDS011;64715;44.760;37.678;2023-02-21T02:45:42;8.70;;;1.85;;
74922;SDS011;64715;44.760;37.678;2023-02-21T02:46:44;7.78;;;1.48;;
74922;SDS011;64715;44.760;37.678;2023-02-21T02:47:49;7.88;;;1.70;;
74922;SDS011;64715;44.760;37.678;2023-02-21T02:48:56;9.23;;;1.60;;
74922;SDS011;64715;44.760;37.678;2023-02-21T02:50:00;6.53;;;1.60;;
74922;SDS011;64715;44.760;37.678;2023-02-21T02:51:11;6.00;;;1.70;;
74922;SDS011;64715;44.760;37.678;2023-02-21T02:52:14;11.68;;;2.10;;
74922;SDS011;64715;44.760;37.678;2023-02-21T02:53:18;9.07;;;1.98;;
74922;SDS011;64715;44.760;37.678;2023-02-21T02:54:24;7.87;;;1.80;;
74922;SDS011;64715;44.760;37.678;2023-02-21T02:55:36;11.60;;;2.13;;
74922;SDS011;64715;44.760;37.678;2023-02-21T02:56:41;8.80;;;1.85;;
74922;SDS011;64715;44.760;37.678;2023-02-21T02:57:43;9.27;;;1.85;;
74922;SDS011;64715;44.760;37.678;2023-02-21T02:58:51;8.18;;;2.20;;
74922;SDS011;64715;44.760;37.678;2023-02-21T02:59:56;11.95;;;2.70;;
74922;SDS011;64715;44.760;37.678;2023-02-21T03:01:04;11.50;;;2.10;;
74922;SDS011;64715;44.760;37.678;2023-02-21T03:02:33;9.95;;;2.60;;
74922;SDS011;64715;44.760;37.678;2023-02-21T03:05:13;8.18;;;2.05;;
74922;SDS011;64715;44.760;37.678;2023-02-21T03:06:46;9.73;;;2.30;;
74922;SDS011;64715;44.760;37.678;2023-02-21T03:08:13;10.43;;;2.42;;
74922;SDS011;64715;44.760;37.678;2023-02-21T03:12:15;10.80;;;2.35;;
74922;SDS011;64715;44.760;37.678;2023-02-21T03:13:42;10.95;;;2.40;;
74922;SDS011;64715;44.760;37.678;2023-02-21T03:14:55;8.40;;;2.17;;
74922;SDS011;64715;44.760;37.678;2023-02-21T03:16:04;7.95;;;1.98;;
74922;SDS011;64715;44.760;37.678;2023-02-21T03:17:19;9.65;;;2.03;;
74922;SDS011;64715;44.760;37.678;2023-02-21T03:18:28;8.70;;;2.13;;
74922;SDS011;64715;44.760;37.678;2023-02-21T03:19:37;7.30;;;1.80;;
74922;SDS011;64715;44.760;37.678;2023-02-21T03:20:42;13.63;;;2.10;;
74922;SDS011;64715;44.760;37.678;2023-02-21T03:21:48;7.10;;;2.10;;
74922;SDS011;64715;44.760;37.678;2023-02-21T03:22:52;10.70;;;2.15;;
74922;SDS011;64715;44.760;37.678;2023-02-21T03:23:56;10.70;;;2.55;;
74922;SDS011;64715;44.760;37.678;2023-02-21T03:25:00;8.40;;;2.13;;
74922;SDS011;64715;44.760;37.678;2023-02-21T03:26:05;9.02;;;2.15;;
74922;SDS011;64715;44.760;37.678;2023-02-21T03:27:09;10.80;;;2.20;;
74922;SDS011;64715;44.760;37.678;2023-02-21T03:28:27;9.20;;;2.30;;
74922;SDS011;64715;44.760;37.678;2023-02-21T03:29:29;6.95;;;1.77;;
74922;SDS011;64715;44.760;37.678;2023-02-21T03:30:32;11.90;;;2.20;;
74922;SDS011;64715;44.760;37.678;2023-02-21T03:31:39;8.90;;;1.90;;
74922;SDS011;64715;44.760;37.678;2023-02-21T03:32:50;9.80;;;2.90;;
74922;SDS011;64715;44.760;37.678;2023-02-21T03:33:54;11.98;;;2.00;;
74922;SDS011;64715;44.760;37.678;2023-02-21T03:34:55;8.35;;;2.10;;
74922;SDS011;64715;44.760;37.678;2023-02-21T03:35:58;7.78;;;1.80;;
74922;SDS011;64715;44.760;37.678;2023-02-21T03:37:02;10.02;;;1.90;;
74922;SDS011;64715;44.760;37.678;2023-02-21T03:38:04;9.32;;;1.90;;
74922;SDS011;64715;44.760;37.678;2023-02-21T03:39:06;8.63;;;2.10;;
74922;SDS011;64715;44.760;37.678;2023-02-21T03:40:08;8.35;;;2.03;;
74922;SDS011;64715;44.760;37.678;2023-02-21T03:41:11;8.40;;;1.70;;
74922;SDS011;64715;44.760;37.678;2023-02-21T03:42:14;10.13;;;2.30;;
74922;SDS011;64715;44.760;37.678;2023-02-21T03:43:15;8.82;;;2.03;;
74922;SDS011;64715;44.760;37.678;2023-02-21T03:44:23;10.32;;;1.70;;
74922;SDS011;64715;44.760;37.678;2023-02-21T03:45:24;9.07;;;2.03;;
74922;SDS011;64715;44.760;37.678;2023-02-21T03:46:40;7.97;;;1.80;;
74922;SDS011;64715;44.760;37.678;2023-02-21T03:47:40;11.02;;;1.95;;
74922;SDS011;64715;44.760;37.678;2023-02-21T03:48:41;9.85;;;2.28;;
74922;SDS011;64715;44.760;37.678;2023-02-21T03:49:50;7.20;;;1.73;;
74922;SDS011;64715;44.760;37.678;2023-02-21T03:50:51;7.78;;;2.00;;
74922;SDS011;64715;44.760;37.678;2023-02-21T03:51:53;9.15;;;2.00;;
74922;SDS011;64715;44.760;37.678;2023-02-21T03:52:54;9.23;;;2.00;;
74922;SDS011;64715;44.760;37.678;2023-02-21T03:53:58;9.25;;;2.00;;
74922;SDS011;64715;44.760;37.678;2023-02-21T03:55:07;7.95;;;1.90;;
74922;SDS011;64715;44.760;37.678;2023-02-21T03:56:09;8.18;;;1.90;;
74922;SDS011;64715;44.760;37.678;2023-02-21T03:57:48;9.70;;;1.80;;
74922;SDS011;64715;44.760;37.678;2023-02-21T03:58:49;8.48;;;1.90;;
74922;SDS011;64715;44.760;37.678;2023-02-21T03:59:50;7.00;;;1.63;;
74922;SDS011;64715;44.760;37.678;2023-02-21T04:00:52;7.18;;;1.65;;
74922;SDS011;64715;44.760;37.678;2023-02-21T04:01:54;8.18;;;2.28;;
74922;SDS011;64715;44.760;37.678;2023-02-21T04:02:56;7.43;;;1.77;;
74922;SDS011;64715;44.760;37.678;2023-02-21T04:04:20;6.97;;;1.77;;
74922;SDS011;64715;44.760;37.678;2023-02-21T04:05:27;7.22;;;1.73;;
74922;SDS011;64715;44.760;37.678;2023-02-21T04:06:29;8.50;;;1.90;;
74922;SDS011;64715;44.760;37.678;2023-02-21T04:07:31;5.78;;;1.60;;
74922;SDS011;64715;44.760;37.678;2023-02-21T04:08:32;10.77;;;1.92;;
74922;SDS011;64715;44.760;37.678;2023-02-21T04:09:34;8.53;;;1.50;;
74922;SDS011;64715;44.760;37.678;2023-02-21T04:10:35;8.23;;;1.67;;
74922;SDS011;64715;44.760;37.678;2023-02-21T04:11:37;7.40;;;1.65;;
74922;SDS011;64715;44.760;37.678;2023-02-21T04:12:43;9.98;;;2.20;;
74922;SDS011;64715;44.760;37.678;2023-02-21T04:13:44;10.30;;;2.00;;
74922;SDS011;64715;44.760;37.678;2023-02-21T04:14:45;9.07;;;1.75;;
74922;SDS011;64715;44.760;37.678;2023-02-21T04:15:46;8.63;;;1.80;;
74922;SDS011;64715;44.760;37.678;2023-02-21T04:16:47;8.43;;;2.10;;
74922;SDS011;64715;44.760;37.678;2023-02-21T04:17:48;10.23;;;2.10;;
74922;SDS011;64715;44.760;37.678;2023-02-21T04:18:49;13.18;;;1.70;;
74922;SDS011;64715;44.760;37.678;2023-02-21T04:19:50;7.60;;;1.73;;
74922;SDS011;64715;44.760;37.678;2023-02-21T04:20:51;8.05;;;1.77;;
74922;SDS011;64715;44.760;37.678;2023-02-21T04:21:53;9.35;;;1.88;;
74922;SDS011;64715;44.760;37.678;2023-02-21T04:22:54;9.27;;;1.75;;
74922;SDS011;64715;44.760;37.678;2023-02-21T04:23:55;10.48;;;1.92;;
74922;SDS011;64715;44.760;37.678;2023-02-21T04:25:02;7.82;;;1.60;;
74922;SDS011;64715;44.760;37.678;2023-02-21T04:26:10;8.40;;;1.50;;
74922;SDS011;64715;44.760;37.678;2023-02-21T04:27:17;9.00;;;1.90;;
74922;SDS011;64715;44.760;37.678;2023-02-21T04:28:24;11.25;;;2.00;;
74922;SDS011;64715;44.760;37.678;2023-02-21T04:29:25;11.65;;;2.00;;
74922;SDS011;64715;44.760;37.678;2023-02-21T04:30:26;7.13;;;1.83;;
74922;SDS011;64715;44.760;37.678;2023-02-21T04:31:28;8.35;;;1.70;;
74922;SDS011;64715;44.760;37.678;2023-02-21T04:32:30;7.55;;;2.05;;
74922;SDS011;64715;44.760;37.678;2023-02-21T04:33:34;8.32;;;1.50;;
74922;SDS011;64715;44.760;37.678;2023-02-21T04:34:35;7.47;;;1.85;;
74922;SDS011;64715;44.760;37.678;2023-02-21T04:35:36;9.33;;;1.60;;
74922;SDS011;64715;44.760;37.678;2023-02-21T04:36:45;8.15;;;2.03;;
74922;SDS011;64715;44.760;37.678;2023-02-21T04:37:47;8.05;;;1.60;;
74922;SDS011;64715;44.760;37.678;2023-02-21T04:38:48;10.52;;;1.75;;
74922;SDS011;64715;44.760;37.678;2023-02-21T04:39:49;9.18;;;1.50;;
74922;SDS011;64715;44.760;37.678;2023-02-21T04:40:51;7.38;;;1.60;;
74922;SDS011;64715;44.760;37.678;2023-02-21T04:41:52;7.60;;;1.83;;
74922;SDS011;64715;44.760;37.678;2023-02-21T04:42:54;8.10;;;1.92;;
74922;SDS011;64715;44.760;37.678;2023-02-21T04:43:55;8.45;;;1.67;;
74922;SDS011;64715;44.760;37.678;2023-02-21T04:44:56;11.70;;;1.70;;
74922;SDS011;64715;44.760;37.678;2023-02-21T04:45:58;9.32;;;1.73;;
74922;SDS011;64715;44.760;37.678;2023-02-21T04:46:59;7.70;;;1.50;;
74922;SDS011;64715;44.760;37.678;2023-02-21T04:48:00;8.25;;;1.92;;
74922;SDS011;64715;44.760;37.678;2023-02-21T04:49:02;6.05;;;1.00;;
74922;SDS011;64715;44.760;37.678;2023-02-21T04:50:03;7.80;;;1.48;;
74922;SDS011;64715;44.760;37.678;2023-02-21T04:51:05;11.32;;;1.40;;
74922;SDS011;64715;44.760;37.678;2023-02-21T04:52:06;6.85;;;1.33;;
74922;SDS011;64715;44.760;37.678;2023-02-21T04:53:07;7.05;;;1.33;;
74922;SDS011;64715;44.760;37.678;2023-02-21T04:54:08;8.43;;;1.40;;
74922;SDS011;64715;44.760;37.678;2023-02-21T04:55:14;10.52;;;1.55;;
74922;SDS011;64715;44.760;37.678;2023-02-21T04:56:19;6.43;;;1.40;;
74922;SDS011;64715;44.760;37.678;2023-02-21T04:57:21;7.72;;;1.48;;
74922;SDS011;64715;44.760;37.678;2023-02-21T04:58:23;6.78;;;1.20;;
74922;SDS011;64715;44.760;37.678;2023-02-21T04:59:23;10.25;;;1.42;;
74922;SDS011;64715;44.760;37.678;2023-02-21T05:00:25;11.07;;;1.77;;
74922;SDS011;64715;44.760;37.678;2023-02-21T05:01:27;8.02;;;1.70;;
74922;SDS011;64715;44.760;37.678;2023-02-21T05:02:30;7.90;;;1.83;;
74922;SDS011;64715;44.760;37.678;2023-02-21T05:03:31;7.20;;;1.17;;
74922;SDS011;64715;44.760;37.678;2023-02-21T05:04:33;8.57;;;1.55;;
74922;SDS011;64715;44.760;37.678;2023-02-21T05:05:35;6.32;;;1.25;;
74922;SDS011;64715;44.760;37.678;2023-02-21T05:06:36;6.97;;;1.40;;
74922;SDS011;64715;44.760;37.678;2023-02-21T05:07:37;6.18;;;1.48;;
74922;SDS011;64715;44.760;37.678;2023-02-21T05:08:41;6.27;;;1.03;;
74922;SDS011;64715;44.760;37.678;2023-02-21T05:09:42;7.90;;;1.02;;
74922;SDS011;64715;44.760;37.678;2023-02-21T05:10:43;5.35;;;0.90;;
74922;SDS011;64715;44.760;37.678;2023-02-21T05:11:45;6.72;;;1.42;;
74922;SDS011;64715;44.760;37.678;2023-02-21T05:12:46;7.75;;;1.75;;
74922;SDS011;64715;44.760;37.678;2023-02-21T05:13:47;5.57;;;1.30;;
74922;SDS011;64715;44.760;37.678;2023-02-21T05:14:48;5.57;;;1.00;;
74922;SDS011;64715;44.760;37.678;2023-02-21T05:15:49;5.82;;;1.50;;
74922;SDS011;64715;44.760;37.678;2023-02-21T05:16:50;6.63;;;1.70;;
74922;SDS011;64715;44.760;37.678;2023-02-21T05:17:51;8.52;;;1.05;;
74922;SDS011;64715;44.760;37.678;2023-02-21T05:18:52;6.65;;;1.83;;
74922;SDS011;64715;44.760;37.678;2023-02-21T05:19:53;10.55;;;1.65;;
74922;SDS011;64715;44.760;37.678;2023-02-21T05:20:54;7.50;;;1.70;;
74922;SDS011;64715;44.760;37.678;2023-02-21T05:21:56;7.57;;;1.35;;
74922;SDS011;64715;44.760;37.678;2023-02-21T05:22:59;6.43;;;1.27;;
74922;SDS011;64715;44.760;37.678;2023-02-21T05:23:59;8.95;;;1.30;;
74922;SDS011;64715;44.760;37.678;2023-02-21T05:25:01;6.57;;;1.25;;
74922;SDS011;64715;44.760;37.678;2023-02-21T05:26:10;6.25;;;1.40;;
74922;SDS011;64715;44.760;37.678;2023-02-21T05:27:13;6.15;;;1.15;;
74922;SDS011;64715;44.760;37.678;2023-02-21T05:28:15;8.75;;;1.48;;
74922;SDS011;64715;44.760;37.678;2023-02-21T05:29:16;6.75;;;1.40;;
74922;SDS011;64715;44.760;37.678;2023-02-21T05:31:20;6.30;;;1.23;;
74922;SDS011;64715;44.760;37.678;2023-02-21T05:32:21;6.82;;;1.40;;
74922;SDS011;64715;44.760;37.678;2023-02-21T05:33:22;6.55;;;1.10;;
74922;SDS011;64715;44.760;37.678;2023-02-21T05:34:24;6.57;;;1.10;;
74922;SDS011;64715;44.760;37.678;2023-02-21T05:35:25;7.03;;;1.67;;
74922;SDS011;64715;44.760;37.678;2023-02-21T05:36:26;7.40;;;1.40;;
74922;SDS011;64715;44.760;37.678;2023-02-21T05:37:27;7.25;;;1.50;;
74922;SDS011;64715;44.760;37.678;2023-02-21T05:38:28;5.57;;;1.40;;
74922;SDS011;64715;44.760;37.678;2023-02-21T05:39:29;8.32;;;1.30;;
74922;SDS011;64715;44.760;37.678;2023-02-21T05:40:30;5.00;;;1.00;;
74922;SDS011;64715;44.760;37.678;2023-02-21T05:41:31;4.93;;;1.15;;
74922;SDS011;64715;44.760;37.678;2023-02-21T05:42:32;5.85;;;1.25;;
74922;SDS011;64715;44.760;37.678;2023-02-21T05:43:33;6.32;;;1.30;;
74922;SDS011;64715;44.760;37.678;2023-02-21T05:44:35;6.63;;;1.60;;
74922;SDS011;64715;44.760;37.678;2023-02-21T05:45:37;5.23;;;1.10;;
74922;SDS011;64715;44.760;37.678;2023-02-21T05:46:38;8.90;;;2.03;;
74922;SDS011;64715;44.760;37.678;2023-02-21T05:47:39;8.50;;;1.30;;
74922;SDS011;64715;44.760;37.678;2023-02-21T05:48:40;7.72;;;1.40;;
74922;SDS011;64715;44.760;37.678;2023-02-21T05:49:41;6.13;;;1.30;;
74922;SDS011;64715;44.760;37.678;2023-02-21T05:50:42;6.20;;;1.13;;
74922;SDS011;64715;44.760;37.678;2023-02-21T05:51:45;5.90;;;1.33;;
74922;SDS011;64715;44.760;37.678;2023-02-21T05:52:46;8.67;;;1.73;;
74922;SDS011;64715;44.760;37.678;2023-02-21T05:53:47;6.72;;;1.23;;
74922;SDS011;64715;44.760;37.678;2023-02-21T05:54:49;7.68;;;1.33;;
74922;SDS011;64715;44.760;37.678;2023-02-21T05:55:50;7.97;;;2.05;;
74922;SDS011;64715;44.760;37.678;2023-02-21T05:56:51;5.70;;;1.48;;
74922;SDS011;64715;44.760;37.678;2023-02-21T05:57:52;6.07;;;1.33;;
74922;SDS011;64715;44.760;37.678;2023-02-21T05:58:53;7.60;;;1.40;;
74922;SDS011;64715;44.760;37.678;2023-02-21T05:59:54;9.50;;;1.50;;
74922;SDS011;64715;44.760;37.678;2023-02-21T06:00:55;7.65;;;1.23;;
74922;SDS011;64715;44.760;37.678;2023-02-21T06:01:59;8.13;;;1.55;;
74922;SDS011;64715;44.760;37.678;2023-02-21T06:03:01;5.47;;;0.90;;
74922;SDS011;64715;44.760;37.678;2023-02-21T06:04:02;6.43;;;0.95;;
74922;SDS011;64715;44.760;37.678;2023-02-21T06:05:04;7.32;;;1.10;;
74922;SDS011;64715;44.760;37.678;2023-02-21T06:06:05;6.57;;;1.02;;
74922;SDS011;64715;44.760;37.678;2023-02-21T06:07:10;5.47;;;1.05;;
74922;SDS011;64715;44.760;37.678;2023-02-21T06:08:11;5.73;;;1.00;;
74922;SDS011;64715;44.760;37.678;2023-02-21T06:09:14;5.95;;;1.13;;
74922;SDS011;64715;44.760;37.678;2023-02-21T06:10:20;6.40;;;1.02;;
74922;SDS011;64715;44.760;37.678;2023-02-21T06:11:23;5.25;;;1.15;;
74922;SDS011;64715;44.760;37.678;2023-02-21T06:12:28;5.70;;;1.30;;
74922;SDS011;64715;44.760;37.678;2023-02-21T06:13:29;7.15;;;1.40;;
74922;SDS011;64715;44.760;37.678;2023-02-21T06:14:30;4.95;;;0.80;;
74922;SDS011;64715;44.760;37.678;2023-02-21T06:15:31;8.50;;;1.20;;
74922;SDS011;64715;44.760;37.678;2023-02-21T06:16:35;7.23;;;0.90;;
74922;SDS011;64715;44.760;37.678;2023-02-21T06:17:38;6.45;;;1.00;;
74922;SDS011;64715;44.760;37.678;2023-02-21T06:18:40;6.25;;;0.98;;
74922;SDS011;64715;44.760;37.678;2023-02-21T06:19:41;5.78;;;0.95;;
74922;SDS011;64715;44.760;37.678;2023-02-21T06:20:42;6.90;;;1.00;;
74922;SDS011;64715;44.760;37.678;2023-02-21T06:21:44;6.55;;;0.90;;
74922;SDS011;64715;44.760;37.678;2023-02-21T06:22:46;10.75;;;1.10;;
74922;SDS011;64715;44.760;37.678;2023-02-21T06:23:48;6.90;;;1.30;;
74922;SDS011;64715;44.760;37.678;2023-02-21T06:24:49;7.85;;;2.40;;
74922;SDS011;64715;44.760;37.678;2023-02-21T06:25:50;10.07;;;1.70;;
74922;SDS011;64715;44.760;37.678;2023-02-21T06:26:51;8.00;;;1.30;;
74922;SDS011;64715;44.760;37.678;2023-02-21T06:27:52;7.18;;;1.40;;
74922;SDS011;64715;44.760;37.678;2023-02-21T06:28:53;8.38;;;1.48;;
74922;SDS011;64715;44.760;37.678;2023-02-21T06:29:54;8.93;;;1.80;;
74922;SDS011;64715;44.760;37.678;2023-02-21T06:30:55;8.57;;;1.48;;
74922;SDS011;64715;44.760;37.678;2023-02-21T06:31:57;8.70;;;1.70;;
74922;SDS011;64715;44.760;37.678;2023-02-21T06:32:58;7.82;;;1.83;;
74922;SDS011;64715;44.760;37.678;2023-02-21T06:33:59;8.45;;;1.42;;
74922;SDS011;64715;44.760;37.678;2023-02-21T06:35:01;8.48;;;1.70;;
74922;SDS011;64715;44.760;37.678;2023-02-21T06:36:06;9.70;;;1.50;;
74922;SDS011;64715;44.760;37.678;2023-02-21T06:37:10;7.45;;;1.80;;
74922;SDS011;64715;44.760;37.678;2023-02-21T06:38:10;7.50;;;1.80;;
74922;SDS011;64715;44.760;37.678;2023-02-21T06:39:11;8.55;;;2.10;;
74922;SDS011;64715;44.760;37.678;2023-02-21T06:40:13;10.23;;;2.03;;
74922;SDS011;64715;44.760;37.678;2023-02-21T06:41:14;11.43;;;3.17;;
74922;SDS011;64715;44.760;37.678;2023-02-21T06:42:17;9.13;;;1.95;;
74922;SDS011;64715;44.760;37.678;2023-02-21T06:43:19;7.43;;;1.42;;
74922;SDS011;64715;44.760;37.678;2023-02-21T06:44:20;7.90;;;1.98;;
74922;SDS011;64715;44.760;37.678;2023-02-21T06:45:21;8.77;;;1.80;;
74922;SDS011;64715;44.760;37.678;2023-02-21T06:46:23;11.63;;;2.23;;
74922;SDS011;64715;44.760;37.678;2023-02-21T06:47:26;10.80;;;2.47;;
74922;SDS011;64715;44.760;37.678;2023-02-21T06:48:26;9.38;;;1.92;;
74922;SDS011;64715;44.760;37.678;2023-02-21T06:49:28;13.25;;;2.58;;
74922;SDS011;64715;44.760;37.678;2023-02-21T06:50:29;11.02;;;2.28;;
74922;SDS011;64715;44.760;37.678;2023-02-21T06:51:34;10.88;;;2.47;;
74922;SDS011;64715;44.760;37.678;2023-02-21T06:52:40;12.60;;;2.10;;
74922;SDS011;64715;44.760;37.678;2023-02-21T06:53:41;15.25;;;3.22;;
74922;SDS011;64715;44.760;37.678;2023-02-21T06:54:44;10.95;;;2.10;;
74922;SDS011;64715;44.760;37.678;2023-02-21T06:55:46;12.10;;;2.28;;
74922;SDS011;64715;44.760;37.678;2023-02-21T06:56:47;12.80;;;2.33;;
74922;SDS011;64715;44.760;37.678;2023-02-21T06:57:48;12.88;;;2.58;;
74922;SDS011;64715;44.760;37.678;2023-02-21T06:58:49;10.05;;;2.10;;
74922;SDS011;64715;44.760;37.678;2023-02-21T06:59:50;7.80;;;2.30;;
74922;SDS011;64715;44.760;37.678;2023-02-21T07:00:51;14.43;;;3.20;;
74922;SDS011;64715;44.760;37.678;2023-02-21T07:01:52;10.55;;;2.08;;
74922;SDS011;64715;44.760;37.678;2023-02-21T07:02:54;9.45;;;2.00;;
74922;SDS011;64715;44.760;37.678;2023-02-21T07:03:56;13.02;;;1.85;;
74922;SDS011;64715;44.760;37.678;2023-02-21T07:04:57;13.25;;;2.50;;
74922;SDS011;64715;44.760;37.678;2023-02-21T07:05:58;9.02;;;1.70;;
74922;SDS011;64715;44.760;37.678;2023-02-21T07:06:59;13.40;;;2.67;;
74922;SDS011;64715;44.760;37.678;2023-02-21T07:08:00;14.88;;;3.25;;
74922;SDS011;64715;44.760;37.678;2023-02-21T07:09:02;13.43;;;2.95;;
74922;SDS011;64715;44.760;37.678;2023-02-21T07:10:03;13.18;;;3.08;;
74922;SDS011;64715;44.760;37.678;2023-02-21T07:11:05;13.65;;;3.72;;
74922;SDS011;64715;44.760;37.678;2023-02-21T07:12:06;10.30;;;2.42;;
74922;SDS011;64715;44.760;37.678;2023-02-21T07:13:08;16.25;;;3.13;;
74922;SDS011;64715;44.760;37.678;2023-02-21T07:14:09;16.65;;;3.80;;